sensor_id;sensor_type;location;lat;lon;timestamp;P1;durP1;ratioP1;P2;durP2;ratioP2
2760;SDS011;15420;48.636;9.798;2022-12-07T00:01:28;8.70;;;6.90;;
2760;SDS011;15420;48.636;9.798;2022-12-07T00:03:57;10.57;;;7.60;;
2760;SDS011;15420;48.636;9.798;2022-12-07T00:06:34;8.70;;;7.27;;
2760;SDS011;15420;48.636;9.798;2022-12-07T00:09:03;9.77;;;7.37;;
2760;SDS011;15420;48.636;9.798;2022-12-07T00:11:30;8.93;;;7.30;;
2760;SDS011;15420;48.636;9.798;2022-12-07T00:13:59;10.83;;;7.50;;
2760;SDS011;15420;48.636;9.798;2022-12-07T00:16:29;10.10;;;7.57;;
2760;SDS011;15420;48.636;9.798;2022-12-07T00:18:59;9.90;;;7.67;;
2760;SDS011;15420;48.636;9.798;2022-12-07T00:21:29;12.40;;;7.80;;
2760;SDS011;15420;48.636;9.798;2022-12-07T00:23:59;8.43;;;6.47;;
2760;SDS011;15420;48.636;9.798;2022-12-07T00:26:33;9.70;;;7.70;;
2760;SDS011;15420;48.636;9.798;2022-12-07T00:29:03;8.83;;;6.93;;
2760;SDS011;15420;48.636;9.798;2022-12-07T00:31:32;8.97;;;7.30;;
2760;SDS011;15420;48.636;9.798;2022-12-07T00:34:04;7.30;;;5.80;;
2760;SDS011;15420;48.636;9.798;2022-12-07T00:36:31;9.10;;;6.83;;
2760;SDS011;15420;48.636;9.798;2022-12-07T00:38:57;10.47;;;6.40;;
2760;SDS011;15420;48.636;9.798;2022-12-07T00:41:25;9.43;;;7.10;;
2760;SDS011;15420;48.636;9.798;2022-12-07T00:43:54;10.90;;;7.63;;
2760;SDS011;15420;48.636;9.798;2022-12-07T00:46:21;9.60;;;7.30;;
2760;SDS011;15420;48.636;9.798;2022-12-07T00:48:51;9.47;;;6.93;;
2760;SDS011;15420;48.636;9.798;2022-12-07T00:51:18;8.20;;;6.13;;
2760;SDS011;15420;48.636;9.798;2022-12-07T00:53:47;10.07;;;7.13;;
2760;SDS011;15420;48.636;9.798;2022-12-07T00:56:15;9.63;;;7.23;;
2760;SDS011;15420;48.636;9.798;2022-12-07T00:58:52;8.73;;;6.13;;
2760;SDS011;15420;48.636;9.798;2022-12-07T01:01:23;8.50;;;6.17;;
2760;SDS011;15420;48.636;9.798;2022-12-07T01:03:54;12.07;;;6.20;;
2760;SDS011;15420;48.636;9.798;2022-12-07T01:06:26;13.87;;;6.80;;
2760;SDS011;15420;48.636;9.798;2022-12-07T01:08:54;8.77;;;6.60;;
2760;SDS011;15420;48.636;9.798;2022-12-07T01:11:22;10.90;;;7.90;;
2760;SDS011;15420;48.636;9.798;2022-12-07T01:13:50;11.53;;;7.63;;
2760;SDS011;15420;48.636;9.798;2022-12-07T01:16:18;12.83;;;8.70;;
2760;SDS011;15420;48.636;9.798;2022-12-07T01:18:48;12.80;;;7.63;;
2760;SDS011;15420;48.636;9.798;2022-12-07T01:21:20;11.97;;;7.60;;
2760;SDS011;15420;48.636;9.798;2022-12-07T01:23:49;10.40;;;7.50;;
2760;SDS011;15420;48.636;9.798;2022-12-07T01:26:17;10.50;;;7.57;;
2760;SDS011;15420;48.636;9.798;2022-12-07T01:28:46;11.23;;;8.30;;
2760;SDS011;15420;48.636;9.798;2022-12-07T01:31:14;11.47;;;8.70;;
2760;SDS011;15420;48.636;9.798;2022-12-07T01:33:48;11.17;;;8.53;;
2760;SDS011;15420;48.636;9.798;2022-12-07T01:36:17;10.40;;;8.20;;
2760;SDS011;15420;48.636;9.798;2022-12-07T01:38:44;12.20;;;8.73;;
2760;SDS011;15420;48.636;9.798;2022-12-07T01:41:11;10.70;;;7.73;;
2760;SDS011;15420;48.636;9.798;2022-12-07T01:46:38;14.70;;;8.70;;
2760;SDS011;15420;48.636;9.798;2022-12-07T01:49:07;11.93;;;9.20;;
2760;SDS011;15420;48.636;9.798;2022-12-07T01:51:40;10.93;;;7.23;;
2760;SDS011;15420;48.636;9.798;2022-12-07T01:54:08;12.10;;;9.00;;
2760;SDS011;15420;48.636;9.798;2022-12-07T01:56:36;13.10;;;8.70;;
2760;SDS011;15420;48.636;9.798;2022-12-07T01:59:05;13.80;;;8.20;;
2760;SDS011;15420;48.636;9.798;2022-12-07T02:01:34;10.27;;;8.27;;
2760;SDS011;15420;48.636;9.798;2022-12-07T02:04:00;12.27;;;8.13;;
2760;SDS011;15420;48.636;9.798;2022-12-07T02:06:30;12.03;;;8.77;;
2760;SDS011;15420;48.636;9.798;2022-12-07T02:09:01;11.27;;;7.90;;
2760;SDS011;15420;48.636;9.798;2022-12-07T02:11:27;10.30;;;7.10;;
2760;SDS011;15420;48.636;9.798;2022-12-07T02:13:56;13.60;;;8.40;;
2760;SDS011;15420;48.636;9.798;2022-12-07T02:21:45;11.13;;;8.10;;
2760;SDS011;15420;48.636;9.798;2022-12-07T02:30:00;13.40;;;8.13;;
2760;SDS011;15420;48.636;9.798;2022-12-07T02:33:13;14.20;;;8.87;;
2760;SDS011;15420;48.636;9.798;2022-12-07T02:35:59;12.67;;;9.03;;
2760;SDS011;15420;48.636;9.798;2022-12-07T02:38:39;15.77;;;9.73;;
2760;SDS011;15420;48.636;9.798;2022-12-07T02:43:45;16.03;;;9.40;;
2760;SDS011;15420;48.636;9.798;2022-12-07T02:46:17;17.13;;;10.40;;
2760;SDS011;15420;48.636;9.798;2022-12-07T02:48:47;15.53;;;9.63;;
2760;SDS011;15420;48.636;9.798;2022-12-07T02:51:19;18.43;;;9.80;;
2760;SDS011;15420;48.636;9.798;2022-12-07T02:53:48;14.40;;;8.77;;
2760;SDS011;15420;48.636;9.798;2022-12-07T03:01:36;13.70;;;8.90;;
2760;SDS011;15420;48.636;9.798;2022-12-07T03:06:56;16.53;;;10.07;;
2760;SDS011;15420;48.636;9.798;2022-12-07T03:09:36;15.27;;;10.70;;
2760;SDS011;15420;48.636;9.798;2022-12-07T03:12:14;15.13;;;10.00;;
2760;SDS011;15420;48.636;9.798;2022-12-07T03:14:55;17.70;;;9.60;;
2760;SDS011;15420;48.636;9.798;2022-12-07T03:17:30;20.80;;;10.87;;
2760;SDS011;15420;48.636;9.798;2022-12-07T03:20:00;14.57;;;9.33;;
2760;SDS011;15420;48.636;9.798;2022-12-07T03:22:32;15.80;;;9.93;;
2760;SDS011;15420;48.636;9.798;2022-12-07T03:25:02;16.60;;;10.47;;
2760;SDS011;15420;48.636;9.798;2022-12-07T03:27:38;17.77;;;10.30;;
2760;SDS011;15420;48.636;9.798;2022-12-07T03:30:17;13.87;;;9.03;;
2760;SDS011;15420;48.636;9.798;2022-12-07T03:32:50;15.07;;;9.80;;
2760;SDS011;15420;48.636;9.798;2022-12-07T03:38:18;18.70;;;10.27;;
2760;SDS011;15420;48.636;9.798;2022-12-07T03:40:54;17.77;;;9.63;;
2760;SDS011;15420;48.636;9.798;2022-12-07T03:43:33;16.07;;;10.17;;
2760;SDS011;15420;48.636;9.798;2022-12-07T03:51:21;15.20;;;9.60;;
2760;SDS011;15420;48.636;9.798;2022-12-07T03:56:42;17.17;;;10.40;;
2760;SDS011;15420;48.636;9.798;2022-12-07T03:59:12;17.80;;;10.47;;
2760;SDS011;15420;48.636;9.798;2022-12-07T04:01:43;14.37;;;9.43;;
2760;SDS011;15420;48.636;9.798;2022-12-07T04:04:17;16.60;;;10.20;;
2760;SDS011;15420;48.636;9.798;2022-12-07T04:06:45;16.17;;;9.93;;
2760;SDS011;15420;48.636;9.798;2022-12-07T04:09:14;16.30;;;9.67;;
2760;SDS011;15420;48.636;9.798;2022-12-07T04:11:41;16.70;;;10.23;;
2760;SDS011;15420;48.636;9.798;2022-12-07T04:14:07;13.67;;;9.10;;
2760;SDS011;15420;48.636;9.798;2022-12-07T04:19:13;13.73;;;9.50;;
2760;SDS011;15420;48.636;9.798;2022-12-07T04:21:45;14.33;;;9.70;;
2760;SDS011;15420;48.636;9.798;2022-12-07T04:24:17;17.30;;;9.70;;
2760;SDS011;15420;48.636;9.798;2022-12-07T04:26:43;16.20;;;10.27;;
2760;SDS011;15420;48.636;9.798;2022-12-07T04:29:12;15.73;;;8.80;;
2760;SDS011;15420;48.636;9.798;2022-12-07T04:31:38;15.30;;;9.10;;
2760;SDS011;15420;48.636;9.798;2022-12-07T04:34:09;16.73;;;9.90;;
2760;SDS011;15420;48.636;9.798;2022-12-07T04:36:39;14.73;;;8.93;;
2760;SDS011;15420;48.636;9.798;2022-12-07T04:39:06;14.73;;;8.40;;
2760;SDS011;15420;48.636;9.798;2022-12-07T04:41:33;15.40;;;9.00;;
2760;SDS011;15420;48.636;9.798;2022-12-07T04:44:00;14.10;;;8.70;;
2760;SDS011;15420;48.636;9.798;2022-12-07T04:46:29;16.30;;;9.90;;
2760;SDS011;15420;48.636;9.798;2022-12-07T04:48:58;13.67;;;8.77;;
2760;SDS011;15420;48.636;9.798;2022-12-07T04:51:25;16.20;;;9.60;;
2760;SDS011;15420;48.636;9.798;2022-12-07T04:53:53;18.60;;;10.83;;
2760;SDS011;15420;48.636;9.798;2022-12-07T04:56:20;15.90;;;9.63;;
2760;SDS011;15420;48.636;9.798;2022-12-07T04:58:47;14.87;;;9.20;;
2760;SDS011;15420;48.636;9.798;2022-12-07T05:01:14;15.07;;;8.90;;
2760;SDS011;15420;48.636;9.798;2022-12-07T05:03:44;16.23;;;10.20;;
2760;SDS011;15420;48.636;9.798;2022-12-07T05:06:10;15.37;;;10.33;;
2760;SDS011;15420;48.636;9.798;2022-12-07T05:08:40;16.07;;;10.93;;
2760;SDS011;15420;48.636;9.798;2022-12-07T05:11:09;20.57;;;10.80;;
2760;SDS011;15420;48.636;9.798;2022-12-07T05:14:02;14.53;;;9.20;;
2760;SDS011;15420;48.636;9.798;2022-12-07T05:16:30;17.17;;;9.97;;
2760;SDS011;15420;48.636;9.798;2022-12-07T05:18:56;17.63;;;10.13;;
2760;SDS011;15420;48.636;9.798;2022-12-07T05:21:22;16.63;;;9.90;;
2760;SDS011;15420;48.636;9.798;2022-12-07T05:23:53;14.57;;;9.10;;
2760;SDS011;15420;48.636;9.798;2022-12-07T05:26:19;13.53;;;8.23;;
2760;SDS011;15420;48.636;9.798;2022-12-07T05:28:45;13.53;;;8.13;;
2760;SDS011;15420;48.636;9.798;2022-12-07T05:31:16;12.80;;;8.20;;
2760;SDS011;15420;48.636;9.798;2022-12-07T05:33:43;16.03;;;9.20;;
2760;SDS011;15420;48.636;9.798;2022-12-07T05:36:09;16.67;;;9.57;;
2760;SDS011;15420;48.636;9.798;2022-12-07T05:38:35;15.43;;;8.80;;
2760;SDS011;15420;48.636;9.798;2022-12-07T05:41:04;13.40;;;9.03;;
2760;SDS011;15420;48.636;9.798;2022-12-07T05:43:31;13.37;;;8.63;;
2760;SDS011;15420;48.636;9.798;2022-12-07T05:46:00;16.93;;;9.23;;
2760;SDS011;15420;48.636;9.798;2022-12-07T05:48:26;13.17;;;8.33;;
2760;SDS011;15420;48.636;9.798;2022-12-07T05:50:55;14.53;;;9.70;;
2760;SDS011;15420;48.636;9.798;2022-12-07T05:53:21;17.93;;;10.30;;
2760;SDS011;15420;48.636;9.798;2022-12-07T05:55:49;16.60;;;9.97;;
2760;SDS011;15420;48.636;9.798;2022-12-07T05:58:19;17.30;;;10.40;;
2760;SDS011;15420;48.636;9.798;2022-12-07T06:01:04;17.60;;;10.33;;
2760;SDS011;15420;48.636;9.798;2022-12-07T06:03:30;16.30;;;10.03;;
2760;SDS011;15420;48.636;9.798;2022-12-07T06:05:59;19.43;;;11.57;;
2760;SDS011;15420;48.636;9.798;2022-12-07T06:08:25;16.50;;;10.83;;
2760;SDS011;15420;48.636;9.798;2022-12-07T06:10:53;18.13;;;10.40;;
2760;SDS011;15420;48.636;9.798;2022-12-07T06:13:39;15.53;;;10.33;;
2760;SDS011;15420;48.636;9.798;2022-12-07T06:16:07;20.37;;;11.90;;
2760;SDS011;15420;48.636;9.798;2022-12-07T06:18:33;17.53;;;11.70;;
2760;SDS011;15420;48.636;9.798;2022-12-07T06:21:00;18.73;;;11.40;;
2760;SDS011;15420;48.636;9.798;2022-12-07T06:23:26;19.37;;;11.90;;
2760;SDS011;15420;48.636;9.798;2022-12-07T06:25:52;23.40;;;12.93;;
2760;SDS011;15420;48.636;9.798;2022-12-07T06:28:18;18.50;;;10.43;;
2760;SDS011;15420;48.636;9.798;2022-12-07T06:30:46;19.73;;;11.67;;
2760;SDS011;15420;48.636;9.798;2022-12-07T06:33:15;19.87;;;12.23;;
2760;SDS011;15420;48.636;9.798;2022-12-07T06:35:41;22.43;;;11.50;;
2760;SDS011;15420;48.636;9.798;2022-12-07T06:38:07;16.70;;;10.80;;
2760;SDS011;15420;48.636;9.798;2022-12-07T06:40:33;18.30;;;10.30;;
2760;SDS011;15420;48.636;9.798;2022-12-07T06:42:59;18.80;;;10.87;;
2760;SDS011;15420;48.636;9.798;2022-12-07T06:45:25;18.30;;;10.80;;
2760;SDS011;15420;48.636;9.798;2022-12-07T06:47:53;20.73;;;12.37;;
2760;SDS011;15420;48.636;9.798;2022-12-07T06:50:19;24.63;;;13.77;;
2760;SDS011;15420;48.636;9.798;2022-12-07T06:52:45;22.13;;;11.43;;
2760;SDS011;15420;48.636;9.798;2022-12-07T06:55:14;18.43;;;10.80;;
2760;SDS011;15420;48.636;9.798;2022-12-07T06:57:42;16.90;;;9.60;;
2760;SDS011;15420;48.636;9.798;2022-12-07T07:00:11;17.27;;;9.47;;
2760;SDS011;15420;48.636;9.798;2022-12-07T07:02:38;18.37;;;10.83;;
2760;SDS011;15420;48.636;9.798;2022-12-07T07:05:04;16.20;;;10.10;;
2760;SDS011;15420;48.636;9.798;2022-12-07T07:07:32;17.17;;;10.87;;
2760;SDS011;15420;48.636;9.798;2022-12-07T07:09:58;19.17;;;10.40;;
2760;SDS011;15420;48.636;9.798;2022-12-07T07:12:24;14.80;;;9.80;;
2760;SDS011;15420;48.636;9.798;2022-12-07T07:14:51;17.07;;;10.13;;
2760;SDS011;15420;48.636;9.798;2022-12-07T07:17:17;14.87;;;9.73;;
2760;SDS011;15420;48.636;9.798;2022-12-07T07:19:43;16.07;;;9.57;;
2760;SDS011;15420;48.636;9.798;2022-12-07T07:22:11;15.47;;;9.67;;
2760;SDS011;15420;48.636;9.798;2022-12-07T07:24:39;19.53;;;10.77;;
2760;SDS011;15420;48.636;9.798;2022-12-07T07:27:08;17.70;;;11.70;;
2760;SDS011;15420;48.636;9.798;2022-12-07T07:29:34;28.23;;;12.40;;
2760;SDS011;15420;48.636;9.798;2022-12-07T07:32:00;20.53;;;11.43;;
2760;SDS011;15420;48.636;9.798;2022-12-07T07:34:26;18.33;;;11.13;;
2760;SDS011;15420;48.636;9.798;2022-12-07T07:36:52;24.47;;;13.97;;
2760;SDS011;15420;48.636;9.798;2022-12-07T07:39:20;24.37;;;14.40;;
2760;SDS011;15420;48.636;9.798;2022-12-07T07:41:49;19.30;;;13.23;;
2760;SDS011;15420;48.636;9.798;2022-12-07T07:44:15;18.30;;;11.37;;
2760;SDS011;15420;48.636;9.798;2022-12-07T07:46:41;20.43;;;11.50;;
2760;SDS011;15420;48.636;9.798;2022-12-07T07:49:10;20.17;;;12.30;;
2760;SDS011;15420;48.636;9.798;2022-12-07T07:51:36;18.00;;;11.37;;
2760;SDS011;15420;48.636;9.798;2022-12-07T07:54:05;18.87;;;10.40;;
2760;SDS011;15420;48.636;9.798;2022-12-07T07:56:31;19.00;;;11.50;;
2760;SDS011;15420;48.636;9.798;2022-12-07T07:58:57;16.30;;;10.20;;
2760;SDS011;15420;48.636;9.798;2022-12-07T08:01:23;17.10;;;9.30;;
2760;SDS011;15420;48.636;9.798;2022-12-07T08:03:52;17.20;;;9.77;;
2760;SDS011;15420;48.636;9.798;2022-12-07T08:06:18;18.20;;;10.37;;
2760;SDS011;15420;48.636;9.798;2022-12-07T08:08:44;17.87;;;10.07;;
2760;SDS011;15420;48.636;9.798;2022-12-07T08:11:10;17.20;;;10.60;;
2760;SDS011;15420;48.636;9.798;2022-12-07T08:13:37;16.73;;;11.03;;
2760;SDS011;15420;48.636;9.798;2022-12-07T08:16:04;15.17;;;9.37;;
2760;SDS011;15420;48.636;9.798;2022-12-07T08:18:35;20.33;;;10.90;;
2760;SDS011;15420;48.636;9.798;2022-12-07T08:21:05;20.87;;;11.93;;
2760;SDS011;15420;48.636;9.798;2022-12-07T08:23:32;20.87;;;12.23;;
2760;SDS011;15420;48.636;9.798;2022-12-07T08:28:52;23.43;;;13.23;;
2760;SDS011;15420;48.636;9.798;2022-12-07T08:31:18;20.27;;;12.17;;
2760;SDS011;15420;48.636;9.798;2022-12-07T08:33:45;21.17;;;11.80;;
2760;SDS011;15420;48.636;9.798;2022-12-07T08:36:15;20.83;;;12.53;;
2760;SDS011;15420;48.636;9.798;2022-12-07T08:38:42;26.73;;;13.87;;
2760;SDS011;15420;48.636;9.798;2022-12-07T08:41:11;26.20;;;16.27;;
2760;SDS011;15420;48.636;9.798;2022-12-07T08:43:39;26.93;;;15.37;;
2760;SDS011;15420;48.636;9.798;2022-12-07T08:46:17;24.57;;;15.43;;
2760;SDS011;15420;48.636;9.798;2022-12-07T08:49:02;21.43;;;13.40;;
2760;SDS011;15420;48.636;9.798;2022-12-07T08:51:46;22.23;;;13.20;;
2760;SDS011;15420;48.636;9.798;2022-12-07T08:54:14;18.70;;;10.77;;
2760;SDS011;15420;48.636;9.798;2022-12-07T08:56:46;16.27;;;11.13;;
2760;SDS011;15420;48.636;9.798;2022-12-07T08:59:16;17.13;;;11.27;;
2760;SDS011;15420;48.636;9.798;2022-12-07T09:01:44;19.67;;;11.73;;
2760;SDS011;15420;48.636;9.798;2022-12-07T09:04:13;15.90;;;10.30;;
2760;SDS011;15420;48.636;9.798;2022-12-07T09:06:40;16.67;;;10.23;;
2760;SDS011;15420;48.636;9.798;2022-12-07T09:09:12;17.87;;;10.57;;
2760;SDS011;15420;48.636;9.798;2022-12-07T09:11:44;15.83;;;10.30;;
2760;SDS011;15420;48.636;9.798;2022-12-07T09:14:12;14.03;;;9.43;;
2760;SDS011;15420;48.636;9.798;2022-12-07T09:16:42;18.27;;;10.00;;
2760;SDS011;15420;48.636;9.798;2022-12-07T09:19:10;15.33;;;10.17;;
2760;SDS011;15420;48.636;9.798;2022-12-07T09:21:37;14.67;;;9.40;;
2760;SDS011;15420;48.636;9.798;2022-12-07T09:24:03;15.63;;;9.63;;
2760;SDS011;15420;48.636;9.798;2022-12-07T09:26:29;16.40;;;9.60;;
2760;SDS011;15420;48.636;9.798;2022-12-07T09:28:55;18.10;;;11.07;;
2760;SDS011;15420;48.636;9.798;2022-12-07T09:31:21;15.50;;;9.90;;
2760;SDS011;15420;48.636;9.798;2022-12-07T09:33:53;17.07;;;10.17;;
2760;SDS011;15420;48.636;9.798;2022-12-07T09:36:24;23.10;;;10.97;;
2760;SDS011;15420;48.636;9.798;2022-12-07T09:38:53;15.50;;;9.33;;
2760;SDS011;15420;48.636;9.798;2022-12-07T09:41:19;15.33;;;9.40;;
2760;SDS011;15420;48.636;9.798;2022-12-07T09:43:47;17.47;;;10.50;;
2760;SDS011;15420;48.636;9.798;2022-12-07T09:46:14;16.77;;;10.60;;
2760;SDS011;15420;48.636;9.798;2022-12-07T09:48:44;13.80;;;8.27;;
2760;SDS011;15420;48.636;9.798;2022-12-07T09:51:15;12.77;;;8.43;;
2760;SDS011;15420;48.636;9.798;2022-12-07T09:53:44;14.70;;;9.97;;
2760;SDS011;15420;48.636;9.798;2022-12-07T09:56:13;13.37;;;8.17;;
2760;SDS011;15420;48.636;9.798;2022-12-07T09:58:46;11.70;;;7.83;;
2760;SDS011;15420;48.636;9.798;2022-12-07T10:01:18;12.40;;;7.70;;
2760;SDS011;15420;48.636;9.798;2022-12-07T10:03:49;11.47;;;7.30;;
2760;SDS011;15420;48.636;9.798;2022-12-07T10:06:18;11.57;;;7.87;;
2760;SDS011;15420;48.636;9.798;2022-12-07T10:08:44;13.80;;;8.97;;
2760;SDS011;15420;48.636;9.798;2022-12-07T10:11:10;15.17;;;10.37;;
2760;SDS011;15420;48.636;9.798;2022-12-07T10:16:28;12.70;;;9.10;;
2760;SDS011;15420;48.636;9.798;2022-12-07T10:22:08;10.67;;;7.17;;
2760;SDS011;15420;48.636;9.798;2022-12-07T10:24:42;7.80;;;6.13;;
2760;SDS011;15420;48.636;9.798;2022-12-07T10:27:30;6.13;;;5.53;;
2760;SDS011;15420;48.636;9.798;2022-12-07T10:29:59;6.03;;;4.40;;
2760;SDS011;15420;48.636;9.798;2022-12-07T10:32:35;5.33;;;3.90;;
2760;SDS011;15420;48.636;9.798;2022-12-07T10:35:23;6.20;;;3.80;;
2760;SDS011;15420;48.636;9.798;2022-12-07T10:37:53;7.10;;;4.43;;
2760;SDS011;15420;48.636;9.798;2022-12-07T10:43:27;4.97;;;4.10;;
2760;SDS011;15420;48.636;9.798;2022-12-07T10:59:12;7.17;;;5.33;;
2760;SDS011;15420;48.636;9.798;2022-12-07T11:01:43;6.00;;;3.80;;
2760;SDS011;15420;48.636;9.798;2022-12-07T11:15:26;10.10;;;5.80;;
2760;SDS011;15420;48.636;9.798;2022-12-07T11:18:21;7.00;;;4.60;;
2760;SDS011;15420;48.636;9.798;2022-12-07T11:24:18;7.57;;;4.77;;
2760;SDS011;15420;48.636;9.798;2022-12-07T11:35:30;8.23;;;6.60;;
2760;SDS011;15420;48.636;9.798;2022-12-07T11:38:15;9.27;;;5.93;;
2760;SDS011;15420;48.636;9.798;2022-12-07T11:40:53;9.20;;;6.40;;
2760;SDS011;15420;48.636;9.798;2022-12-07T11:43:37;9.33;;;6.83;;
2760;SDS011;15420;48.636;9.798;2022-12-07T11:46:19;7.87;;;6.33;;
2760;SDS011;15420;48.636;9.798;2022-12-07T11:48:52;6.97;;;6.00;;
2760;SDS011;15420;48.636;9.798;2022-12-07T11:51:22;9.60;;;7.20;;
2760;SDS011;15420;48.636;9.798;2022-12-07T11:53:53;8.80;;;5.97;;
2760;SDS011;15420;48.636;9.798;2022-12-07T11:56:27;6.63;;;5.00;;
2760;SDS011;15420;48.636;9.798;2022-12-07T11:59:08;8.10;;;4.90;;
2760;SDS011;15420;48.636;9.798;2022-12-07T12:04:29;9.30;;;6.43;;
2760;SDS011;15420;48.636;9.798;2022-12-07T12:07:13;7.53;;;5.50;;
2760;SDS011;15420;48.636;9.798;2022-12-07T12:09:51;9.10;;;5.67;;
2760;SDS011;15420;48.636;9.798;2022-12-07T12:15:33;6.67;;;4.93;;
2760;SDS011;15420;48.636;9.798;2022-12-07T12:21:35;4.70;;;3.90;;
2760;SDS011;15420;48.636;9.798;2022-12-07T12:23:51;8.20;;;5.20;;
2760;SDS011;15420;48.636;9.798;2022-12-07T12:26:27;9.03;;;5.00;;
2760;SDS011;15420;48.636;9.798;2022-12-07T12:28:57;6.53;;;4.70;;
2760;SDS011;15420;48.636;9.798;2022-12-07T12:31:31;9.17;;;6.60;;
2760;SDS011;15420;48.636;9.798;2022-12-07T12:34:29;7.40;;;5.77;;
2760;SDS011;15420;48.636;9.798;2022-12-07T12:36:55;5.83;;;4.33;;
2760;SDS011;15420;48.636;9.798;2022-12-07T12:39:24;5.80;;;4.90;;
2760;SDS011;15420;48.636;9.798;2022-12-07T12:41:51;5.37;;;4.40;;
2760;SDS011;15420;48.636;9.798;2022-12-07T12:46:49;9.67;;;4.80;;
2760;SDS011;15420;48.636;9.798;2022-12-07T12:54:36;4.77;;;3.97;;
2760;SDS011;15420;48.636;9.798;2022-12-07T13:02:27;6.47;;;4.70;;
2760;SDS011;15420;48.636;9.798;2022-12-07T13:15:31;9.10;;;5.20;;
2760;SDS011;15420;48.636;9.798;2022-12-07T13:17:59;5.70;;;4.20;;
2760;SDS011;15420;48.636;9.798;2022-12-07T13:20:44;5.57;;;3.73;;
2760;SDS011;15420;48.636;9.798;2022-12-07T13:23:51;9.80;;;4.00;;
2760;SDS011;15420;48.636;9.798;2022-12-07T13:26:23;4.60;;;4.13;;
2760;SDS011;15420;48.636;9.798;2022-12-07T13:31:36;3.93;;;3.63;;
2760;SDS011;15420;48.636;9.798;2022-12-07T13:34:04;6.27;;;4.80;;
2760;SDS011;15420;48.636;9.798;2022-12-07T13:36:50;9.00;;;5.43;;
2760;SDS011;15420;48.636;9.798;2022-12-07T13:39:20;5.77;;;4.50;;
2760;SDS011;15420;48.636;9.798;2022-12-07T13:41:57;7.83;;;6.10;;
2760;SDS011;15420;48.636;9.798;2022-12-07T13:44:25;6.40;;;5.10;;
2760;SDS011;15420;48.636;9.798;2022-12-07T13:49:46;7.43;;;5.07;;
2760;SDS011;15420;48.636;9.798;2022-12-07T13:57:39;8.13;;;6.30;;
2760;SDS011;15420;48.636;9.798;2022-12-07T14:00:16;7.40;;;5.60;;
2760;SDS011;15420;48.636;9.798;2022-12-07T14:03:01;7.80;;;6.30;;
2760;SDS011;15420;48.636;9.798;2022-12-07T14:05:31;12.77;;;4.83;;
2760;SDS011;15420;48.636;9.798;2022-12-07T14:08:00;6.30;;;4.20;;
2760;SDS011;15420;48.636;9.798;2022-12-07T14:13:34;6.30;;;4.13;;
2760;SDS011;15420;48.636;9.798;2022-12-07T14:16:04;7.03;;;4.97;;
2760;SDS011;15420;48.636;9.798;2022-12-07T14:18:47;7.33;;;4.70;;
2760;SDS011;15420;48.636;9.798;2022-12-07T14:23:40;7.33;;;4.70;;
2760;SDS011;15420;48.636;9.798;2022-12-07T14:26:11;8.23;;;5.90;;
2760;SDS011;15420;48.636;9.798;2022-12-07T14:28:45;7.43;;;5.47;;
2760;SDS011;15420;48.636;9.798;2022-12-07T14:31:13;7.93;;;5.80;;
2760;SDS011;15420;48.636;9.798;2022-12-07T14:33:41;11.47;;;6.37;;
2760;SDS011;15420;48.636;9.798;2022-12-07T14:36:11;10.70;;;6.10;;
2760;SDS011;15420;48.636;9.798;2022-12-07T14:38:38;11.30;;;6.23;;
2760;SDS011;15420;48.636;9.798;2022-12-07T14:41:06;8.23;;;5.77;;
2760;SDS011;15420;48.636;9.798;2022-12-07T14:43:58;10.13;;;6.43;;
2760;SDS011;15420;48.636;9.798;2022-12-07T14:46:24;7.37;;;5.40;;
2760;SDS011;15420;48.636;9.798;2022-12-07T14:48:53;9.83;;;5.93;;
2760;SDS011;15420;48.636;9.798;2022-12-07T14:51:19;8.60;;;5.10;;
2760;SDS011;15420;48.636;9.798;2022-12-07T14:53:47;9.03;;;5.90;;
2760;SDS011;15420;48.636;9.798;2022-12-07T14:56:22;8.03;;;6.00;;
2760;SDS011;15420;48.636;9.798;2022-12-07T14:58:49;8.87;;;6.03;;
2760;SDS011;15420;48.636;9.798;2022-12-07T15:01:15;15.60;;;6.77;;
2760;SDS011;15420;48.636;9.798;2022-12-07T15:03:42;9.60;;;6.20;;
2760;SDS011;15420;48.636;9.798;2022-12-07T15:06:10;11.17;;;6.17;;
2760;SDS011;15420;48.636;9.798;2022-12-07T15:08:39;10.63;;;6.40;;
2760;SDS011;15420;48.636;9.798;2022-12-07T15:11:06;9.40;;;6.17;;
2760;SDS011;15420;48.636;9.798;2022-12-07T15:13:36;13.13;;;7.40;;
2760;SDS011;15420;48.636;9.798;2022-12-07T15:16:20;6.90;;;5.40;;
2760;SDS011;15420;48.636;9.798;2022-12-07T15:18:46;10.60;;;7.00;;
2760;SDS011;15420;48.636;9.798;2022-12-07T15:21:15;11.57;;;7.00;;
2760;SDS011;15420;48.636;9.798;2022-12-07T15:23:42;13.53;;;6.20;;
2760;SDS011;15420;48.636;9.798;2022-12-07T15:26:10;11.00;;;6.10;;
2760;SDS011;15420;48.636;9.798;2022-12-07T15:28:36;12.03;;;6.07;;
2760;SDS011;15420;48.636;9.798;2022-12-07T15:31:03;10.43;;;5.33;;
2760;SDS011;15420;48.636;9.798;2022-12-07T15:33:29;11.03;;;6.60;;
2760;SDS011;15420;48.636;9.798;2022-12-07T15:35:55;10.97;;;7.03;;
2760;SDS011;15420;48.636;9.798;2022-12-07T15:38:23;10.37;;;6.77;;
2760;SDS011;15420;48.636;9.798;2022-12-07T15:40:54;11.27;;;6.93;;
2760;SDS011;15420;48.636;9.798;2022-12-07T15:43:20;9.90;;;7.30;;
2760;SDS011;15420;48.636;9.798;2022-12-07T15:46:08;12.60;;;7.13;;
2760;SDS011;15420;48.636;9.798;2022-12-07T15:48:34;12.07;;;7.30;;
2760;SDS011;15420;48.636;9.798;2022-12-07T15:51:04;14.50;;;7.90;;
2760;SDS011;15420;48.636;9.798;2022-12-07T15:53:34;14.27;;;9.80;;
2760;SDS011;15420;48.636;9.798;2022-12-07T15:56:00;13.67;;;9.43;;
2760;SDS011;15420;48.636;9.798;2022-12-07T15:58:33;14.07;;;9.60;;
2760;SDS011;15420;48.636;9.798;2022-12-07T16:00:59;13.50;;;8.57;;
2760;SDS011;15420;48.636;9.798;2022-12-07T16:03:34;14.17;;;9.50;;
2760;SDS011;15420;48.636;9.798;2022-12-07T16:06:00;15.87;;;10.07;;
2760;SDS011;15420;48.636;9.798;2022-12-07T16:08:26;19.43;;;13.13;;
2760;SDS011;15420;48.636;9.798;2022-12-07T16:10:55;33.27;;;16.80;;
2760;SDS011;15420;48.636;9.798;2022-12-07T16:13:21;25.10;;;16.60;;
2760;SDS011;15420;48.636;9.798;2022-12-07T16:15:47;22.80;;;14.60;;
2760;SDS011;15420;48.636;9.798;2022-12-07T16:18:18;25.07;;;14.30;;
2760;SDS011;15420;48.636;9.798;2022-12-07T16:20:47;26.00;;;14.20;;
2760;SDS011;15420;48.636;9.798;2022-12-07T16:23:16;21.70;;;13.67;;
2760;SDS011;15420;48.636;9.798;2022-12-07T16:25:42;20.17;;;13.60;;
2760;SDS011;15420;48.636;9.798;2022-12-07T16:28:10;31.20;;;16.13;;
2760;SDS011;15420;48.636;9.798;2022-12-07T16:30:36;30.23;;;15.57;;
2760;SDS011;15420;48.636;9.798;2022-12-07T16:33:03;27.33;;;15.60;;
2760;SDS011;15420;48.636;9.798;2022-12-07T16:35:29;26.43;;;15.03;;
2760;SDS011;15420;48.636;9.798;2022-12-07T16:37:55;23.20;;;13.40;;
2760;SDS011;15420;48.636;9.798;2022-12-07T16:40:21;23.57;;;13.37;;
2760;SDS011;15420;48.636;9.798;2022-12-07T16:42:47;22.87;;;12.60;;
2760;SDS011;15420;48.636;9.798;2022-12-07T16:45:16;29.80;;;16.50;;
2760;SDS011;15420;48.636;9.798;2022-12-07T16:47:44;43.00;;;22.40;;
2760;SDS011;15420;48.636;9.798;2022-12-07T16:50:10;36.63;;;20.20;;
2760;SDS011;15420;48.636;9.798;2022-12-07T16:52:36;42.90;;;23.07;;
2760;SDS011;15420;48.636;9.798;2022-12-07T16:55:03;38.57;;;23.07;;
2760;SDS011;15420;48.636;9.798;2022-12-07T16:57:30;38.67;;;19.67;;
2760;SDS011;15420;48.636;9.798;2022-12-07T16:59:57;37.30;;;18.40;;
2760;SDS011;15420;48.636;9.798;2022-12-07T17:02:23;29.20;;;17.93;;
2760;SDS011;15420;48.636;9.798;2022-12-07T17:04:50;34.83;;;19.63;;
2760;SDS011;15420;48.636;9.798;2022-12-07T17:07:21;35.40;;;19.27;;
2760;SDS011;15420;48.636;9.798;2022-12-07T17:09:51;39.23;;;20.87;;
2760;SDS011;15420;48.636;9.798;2022-12-07T17:12:20;30.07;;;17.10;;
2760;SDS011;15420;48.636;9.798;2022-12-07T17:14:46;22.60;;;13.80;;
2760;SDS011;15420;48.636;9.798;2022-12-07T17:17:31;16.17;;;10.60;;
2760;SDS011;15420;48.636;9.798;2022-12-07T17:19:59;19.10;;;10.70;;